Time;durP1;ratioP1;P1;durP2;ratioP2;P2;SDS_P1;SDS_P2;PMS_P1;PMS_P2;Temp;Humidity;BMP_temperature;BMP_pressure;BME280_temperature;BME280_humidity;BME280_pressure;Samples;Min_cycle;Max_cycle;Signal;HPM_P1;HPM_P2
2022/05/10 00:00:55;;;;;;;;;;;;;;;;;;4996829;28;19980;-71
2022/05/10 00:03:21;;;;;;;;;;;;;;;;;;4996670;28;19920;-71
2022/05/10 00:05:47;;;;;;;;;;;;;;;;;;4996694;28;19910;-71
2022/05/10 00:08:13;;;;;;;;;;;;;;;;;;4996973;28;19910;-71
2022/05/10 00:10:39;;;;;;;;;;;;;;;;;;4996627;28;20008;-71
2022/05/10 00:13:05;;;;;;;;;;;;;;;;;;4996940;28;19963;-71
2022/05/10 00:15:31;;;;;;;;;;;;;;;;;;4996259;28;19949;-71
2022/05/10 00:17:57;;;;;;;;;;;;;;;;;;4996345;28;19932;-71
2022/05/10 00:20:23;;;;;;;;;;;;;;;;;;4996342;28;19916;-71
2022/05/10 00:22:49;;;;;;;;;;;;;;;;;;4996734;28;19914;-71
2022/05/10 00:25:15;;;;;;;;;;;;;;;;;;4996341;28;19916;-71
2022/05/10 00:27:41;;;;;;;;;;;;;;;;;;4995927;28;19993;-71
2022/05/10 00:30:07;;;;;;;;;;;;;;;;;;4996241;28;20348;-71
2022/05/10 00:32:33;;;;;;;;;;;;;;;;;;4996625;28;20256;-71
2022/05/10 00:34:59;;;;;;;;;;;;;;;;;;4995899;28;19913;-71
2022/05/10 00:37:25;;;;;;;;;;;;;;;;;;4995842;28;19972;-71
2022/05/10 00:39:51;;;;;;;;;;;;;;;;;;4996421;28;20367;-71
2022/05/10 00:42:16;;;;;;;;;;;;;;;;;;4996266;28;19984;-71
2022/05/10 00:44:42;;;;;;;;;;;;;;;;;;4995799;28;20016;-71
2022/05/10 00:47:08;;;;;;;;;;;;;;;;;;4995766;28;19921;-71
2022/05/10 00:49:34;;;;;;;;;;;;;;;;;;4995828;28;20375;-71
2022/05/10 00:52:00;;;;;;;;;;;;;;;;;;4996339;28;19910;-71
2022/05/10 00:54:26;;;;;;;;;;;;;;;;;;4995648;28;19917;-71
2022/05/10 00:56:52;;;;;;;;;;;;;;;;;;4995437;28;20379;-71
2022/05/10 00:59:18;;;;;;;;;;;;;;;;;;4995632;28;19910;-71
2022/05/10 01:01:44;;;;;;;;;;;;;;;;;;4996224;28;19910;-71
2022/05/10 01:04:11;;;;;;;;;;;;;;;;;;4995285;28;19916;-71
2022/05/10 01:06:37;;;;;;;;;;;;;;;;;;4995286;28;19918;-71
2022/05/10 01:09:04;;;;;;;;;;;;;;;;;;4995442;28;19921;-71
2022/05/10 01:11:30;;;;;;;;;;;;;;;;;;4995994;28;19910;-71
2022/05/10 01:13:56;;;;;;;;;;;;;;;;;;4995199;28;20400;-71
2022/05/10 01:16:22;;;;;;;;;;;;;;;;;;4995414;28;19914;-71
2022/05/10 01:18:48;;;;;;;;;;;;;;;;;;4995057;28;19918;-71
2022/05/10 01:21:14;;;;;;;;;;;;;;;;;;4995780;28;19910;-71
2022/05/10 01:23:40;;;;;;;;;;;;;;;;;;4995109;28;19909;-71
2022/05/10 01:26:06;;;;;;;;;;;;;;;;;;4994938;28;19936;-71
2022/05/10 01:28:32;;;;;;;;;;;;;;;;;;4995393;28;19910;-71
2022/05/10 01:30:58;;;;;;;;;;;;;;;;;;4995377;28;20000;-71
2022/05/10 01:33:29;;;;;;;;;;;;;;;;;;4995632;28;20383;-71
2022/05/10 01:35:55;;;;;;;;;;;;;;;;;;4994975;28;19956;-71
2022/05/10 01:38:21;;;;;;;;;;;;;;;;;;4995004;28;19917;-71
2022/05/10 01:40:47;;;;;;;;;;;;;;;;;;4995148;28;19937;-71
2022/05/10 01:43:13;;;;;;;;;;;;;;;;;;4997367;28;19925;-71
2022/05/10 01:45:39;;;;;;;;;;;;;;;;;;4999061;28;20271;-71
2022/05/10 01:48:05;;;;;;;;;;;;;;;;;;4999571;28;19964;-71
2022/05/10 01:50:31;;;;;;;;;;;;;;;;;;4998857;28;19916;-71
2022/05/10 01:52:57;;;;;;;;;;;;;;;;;;4999819;28;20000;-71
2022/05/10 01:55:23;;;;;;;;;;;;;;;;;;4999017;28;19909;-71
2022/05/10 01:57:49;;;;;;;;;;;;;;;;;;4998628;28;19971;-71
2022/05/10 02:00:15;;;;;;;;;;;;;;;;;;4998983;28;20404;-71
2022/05/10 02:02:41;;;;;;;;;;;;;;;;;;4999331;28;19916;-71
2022/05/10 02:05:07;;;;;;;;;;;;;;;;;;4998680;28;19910;-71
2022/05/10 02:07:33;;;;;;;;;;;;;;;;;;4999497;28;19909;-71
2022/05/10 02:09:59;;;;;;;;;;;;;;;;;;4998626;28;20028;-71
2022/05/10 02:12:25;;;;;;;;;;;;;;;;;;4998699;28;19914;-71
2022/05/10 02:14:51;;;;;;;;;;;;;;;;;;4998805;28;19909;-71
2022/05/10 02:17:17;;;;;;;;;;;;;;;;;;4998423;28;20242;-71
2022/05/10 02:19:43;;;;;;;;;;;;;;;;;;4998671;28;19914;-71
2022/05/10 02:22:09;;;;;;;;;;;;;;;;;;4981438;28;19918;-71
2022/05/10 02:24:35;;;;;;;;;;;;;;;;;;4998954;28;19910;-71
2022/05/10 02:27:01;;;;;;;;;;;;;;;;;;4998419;28;19936;-71
2022/05/10 02:29:27;;;;;;;;;;;;;;;;;;4998843;28;19917;-71
2022/05/10 02:34:38;;;;;;;;;;;;;;;;;;4998095;28;19959;-71
2022/05/10 02:37:04;;;;;;;;;;;;;;;;;;4998238;28;20020;-71
2022/05/10 02:39:30;;;;;;;;;;;;;;;;;;4998431;28;19921;-71
2022/05/10 02:41:56;;;;;;;;;;;;;;;;;;4997739;28;20372;-71
2022/05/10 02:44:22;;;;;;;;;;;;;;;;;;4998094;28;19909;-71
2022/05/10 02:46:47;;;;;;;;;;;;;;;;;;4997901;28;20369;-71
2022/05/10 02:49:13;;;;;;;;;;;;;;;;;;4998311;28;20430;-71
2022/05/10 02:51:39;;;;;;;;;;;;;;;;;;4998456;28;19917;-71
2022/05/10 02:54:05;;;;;;;;;;;;;;;;;;4996672;28;19940;-71
2022/05/10 02:56:31;;;;;;;;;;;;;;;;;;4997266;28;19913;-71
2022/05/10 02:58:57;;;;;;;;;;;;;;;;;;4997584;28;20432;-71
2022/05/10 03:01:23;;;;;;;;;;;;;;;;;;4998169;28;19909;-71
2022/05/10 03:03:49;;;;;;;;;;;;;;;;;;4997601;28;19920;-71
2022/05/10 03:06:17;;;;;;;;;;;;;;;;;;4997557;28;19948;-71
2022/05/10 03:08:43;;;;;;;;;;;;;;;;;;4997447;28;19910;-71
2022/05/10 03:11:09;;;;;;;;;;;;;;;;;;4997642;28;19964;-71
2022/05/10 03:13:35;;;;;;;;;;;;;;;;;;4997458;28;19913;-71
2022/05/10 03:16:01;;;;;;;;;;;;;;;;;;4997291;28;19910;-71
2022/05/10 03:18:27;;;;;;;;;;;;;;;;;;4997636;28;20399;-71
2022/05/10 03:20:53;;;;;;;;;;;;;;;;;;4997365;28;19960;-71
2022/05/10 03:23:19;;;;;;;;;;;;;;;;;;4997529;28;19917;-71
2022/05/10 03:25:45;;;;;;;;;;;;;;;;;;4996909;28;19916;-71
2022/05/10 03:28:11;;;;;;;;;;;;;;;;;;4996726;28;19917;-71
2022/05/10 03:30:37;;;;;;;;;;;;;;;;;;4997098;28;19910;-71
2022/05/10 03:33:03;;;;;;;;;;;;;;;;;;4996465;28;19910;-71
2022/05/10 03:35:29;;;;;;;;;;;;;;;;;;4997123;28;19968;-71
2022/05/10 03:37:55;;;;;;;;;;;;;;;;;;4996919;28;20004;-71
2022/05/10 03:40:30;;;;;;;;;;;;;;;;;;4996997;28;19917;-71
2022/05/10 03:42:56;;;;;;;;;;;;;;;;;;4978654;28;19918;-71
2022/05/10 03:45:22;;;;;;;;;;;;;;;;;;4979311;28;19959;-71
2022/05/10 03:47:48;;;;;;;;;;;;;;;;;;4996783;28;20004;-71
2022/05/10 03:50:14;;;;;;;;;;;;;;;;;;4996445;28;19910;-71
2022/05/10 03:52:40;;;;;;;;;;;;;;;;;;4997313;28;19909;-71
2022/05/10 03:55:06;;;;;;;;;;;;;;;;;;4996620;28;20364;-71
2022/05/10 03:57:32;;;;;;;;;;;;;;;;;;4996453;28;19913;-71
2022/05/10 03:59:58;;;;;;;;;;;;;;;;;;4996801;28;19914;-71
2022/05/10 04:02:24;;;;;;;;;;;;;;;;;;4995927;28;19937;-71
2022/05/10 04:04:50;;;;;;;;;;;;;;;;;;4996165;28;19909;-71
2022/05/10 04:07:16;;;;;;;;;;;;;;;;;;4994351;28;19910;-71
2022/05/10 04:09:42;;;;;;;;;;;;;;;;;;4995537;28;19909;-71
2022/05/10 04:12:08;;;;;;;;;;;;;;;;;;4996204;28;20353;-70
2022/05/10 04:14:34;;;;;;;;;;;;;;;;;;4995846;28;19936;-71
2022/05/10 04:17:00;;;;;;;;;;;;;;;;;;4994582;28;20315;-71
2022/05/10 04:19:26;;;;;;;;;;;;;;;;;;4996126;28;19964;-72
2022/05/10 04:21:52;;;;;;;;;;;;;;;;;;4996336;28;19910;-72
2022/05/10 04:24:18;;;;;;;;;;;;;;;;;;4995308;28;19916;-72
2022/05/10 04:26:44;;;;;;;;;;;;;;;;;;4995118;28;19914;-70
2022/05/10 04:29:10;;;;;;;;;;;;;;;;;;4996010;28;19916;-70
2022/05/10 04:31:36;;;;;;;;;;;;;;;;;;4994620;28;19910;-70
2022/05/10 04:34:02;;;;;;;;;;;;;;;;;;4995619;28;19996;-71
2022/05/10 04:36:28;;;;;;;;;;;;;;;;;;4994344;28;19921;-69
2022/05/10 04:38:54;;;;;;;;;;;;;;;;;;4993268;28;19914;-69
2022/05/10 04:41:26;;;;;;;;;;;;;;;;;;4994118;28;19916;-69
2022/05/10 04:43:52;;;;;;;;;;;;;;;;;;4994749;28;19972;-69
2022/05/10 04:46:18;;;;;;;;;;;;;;;;;;4996043;28;20346;-69
2022/05/10 04:48:44;;;;;;;;;;;;;;;;;;4978867;28;19916;-69
2022/05/10 04:51:10;;;;;;;;;;;;;;;;;;4996659;28;19910;-69
2022/05/10 04:53:36;;;;;;;;;;;;;;;;;;4995893;28;20333;-69
2022/05/10 04:56:03;;;;;;;;;;;;;;;;;;4995655;28;20261;-69
2022/05/10 04:58:29;;;;;;;;;;;;;;;;;;4995782;28;20012;-69
2022/05/10 05:00:55;;;;;;;;;;;;;;;;;;4995540;28;20345;-69
2022/05/10 05:03:21;;;;;;;;;;;;;;;;;;4995735;28;19913;-69
2022/05/10 05:05:47;;;;;;;;;;;;;;;;;;4995836;28;20004;-69
2022/05/10 05:08:13;;;;;;;;;;;;;;;;;;4995756;28;19910;-69
2022/05/10 05:10:39;;;;;;;;;;;;;;;;;;4995435;28;19952;-69
2022/05/10 05:13:05;;;;;;;;;;;;;;;;;;4996288;28;19910;-69
2022/05/10 05:15:31;;;;;;;;;;;;;;;;;;4995495;28;19916;-69
2022/05/10 05:17:57;;;;;;;;;;;;;;;;;;4979827;28;20323;-69
2022/05/10 05:20:23;;;;;;;;;;;;;;;;;;4999696;28;19913;-69
2022/05/10 05:22:49;;;;;;;;;;;;;;;;;;5000398;28;20379;-69
2022/05/10 05:25:15;;;;;;;;;;;;;;;;;;4999648;28;20012;-69
2022/05/10 05:27:40;;;;;;;;;;;;;;;;;;4999832;28;19910;-69
2022/05/10 05:30:06;;;;;;;;;;;;;;;;;;4999632;28;19913;-69
2022/05/10 05:32:33;;;;;;;;;;;;;;;;;;5000223;28;19948;-69
2022/05/10 05:34:58;;;;;;;;;;;;;;;;;;4999397;28;20345;-69
2022/05/10 05:37:33;;;;;;;;;;;;;;;;;;4999590;28;19920;-69
2022/05/10 05:39:59;;;;;;;;;;;;;;;;;;4999438;28;20340;-69
2022/05/10 05:42:25;;;;;;;;;;;;;;;;;;4999656;28;19921;-69
2022/05/10 05:44:51;;;;;;;;;;;;;;;;;;4999106;28;19909;-69
2022/05/10 05:47:17;;;;;;;;;;;;;;;;;;4999067;28;20387;-70
2022/05/10 05:49:43;;;;;;;;;;;;;;;;;;4999033;28;19916;-69
2022/05/10 05:52:09;;;;;;;;;;;;;;;;;;4999775;28;20355;-70
2022/05/10 05:54:35;;;;;;;;;;;;;;;;;;4999266;28;19916;-70
2022/05/10 05:57:01;;;;;;;;;;;;;;;;;;4999443;28;19914;-69
2022/05/10 05:59:27;;;;;;;;;;;;;;;;;;4999111;28;20411;-70
2022/05/10 06:01:53;;;;;;;;;;;;;;;;;;4999908;28;19944;-70
2022/05/10 06:04:19;;;;;;;;;;;;;;;;;;4998753;28;20272;-70
2022/05/10 06:06:45;;;;;;;;;;;;;;;;;;4998981;28;19964;-70
2022/05/10 06:09:11;;;;;;;;;;;;;;;;;;4999082;28;19909;-70
2022/05/10 06:11:38;;;;;;;;;;;;;;;;;;4998951;28;19910;-70
2022/05/10 06:14:04;;;;;;;;;;;;;;;;;;4981210;28;20268;-70
2022/05/10 06:16:30;;;;;;;;;;;;;;;;;;4998774;28;19914;-70
2022/05/10 06:18:56;;;;;;;;;;;;;;;;;;4998481;28;20316;-70
2022/05/10 06:21:22;;;;;;;;;;;;;;;;;;4998745;28;19909;-70
2022/05/10 06:23:48;;;;;;;;;;;;;;;;;;4998252;28;19960;-70
2022/05/10 06:26:14;;;;;;;;;;;;;;;;;;4998165;28;19910;-70
2022/05/10 06:28:40;;;;;;;;;;;;;;;;;;4998326;28;19909;-70
2022/05/10 06:31:06;;;;;;;;;;;;;;;;;;4998601;28;20020;-70
2022/05/10 06:33:32;;;;;;;;;;;;;;;;;;4998590;28;19956;-70
2022/05/10 06:35:58;;;;;;;;;;;;;;;;;;4998120;28;19917;-70
2022/05/10 06:38:30;;;;;;;;;;;;;;;;;;4998483;28;20341;-70
2022/05/10 06:40:56;;;;;;;;;;;;;;;;;;4998188;28;19914;-70
2022/05/10 06:43:22;;;;;;;;;;;;;;;;;;4998702;28;19925;-70
2022/05/10 06:45:48;;;;;;;;;;;;;;;;;;4998298;28;20363;-70
2022/05/10 06:48:14;;;;;;;;;;;;;;;;;;4997827;28;19926;-70
2022/05/10 06:50:40;;;;;;;;;;;;;;;;;;4998048;28;19948;-70
2022/05/10 06:53:06;;;;;;;;;;;;;;;;;;4994039;28;19910;-70
2022/05/10 06:55:32;;;;;;;;;;;;;;;;;;5000576;28;19914;-69
2022/05/10 06:57:58;;;;;;;;;;;;;;;;;;4996951;28;19948;-69
2022/05/10 07:00:24;;;;;;;;;;;;;;;;;;4983777;28;19918;-69
2022/05/10 07:02:50;;;;;;;;;;;;;;;;;;4989420;28;20001;-69
2022/05/10 07:05:16;;;;;;;;;;;;;;;;;;4978186;28;19949;-69
2022/05/10 07:07:41;;;;;;;;;;;;;;;;;;4992291;28;19982;-69
2022/05/10 07:10:09;;;;;;;;;;;;;;;;;;4997543;28;19936;-69
2022/05/10 07:12:35;;;;;;;;;;;;;;;;;;4997349;28;19936;-69
2022/05/10 07:15:01;;;;;;;;;;;;;;;;;;4997597;28;19949;-69
2022/05/10 07:17:27;;;;;;;;;;;;;;;;;;4996939;28;20003;-69
2022/05/10 07:19:53;;;;;;;;;;;;;;;;;;4997365;28;20348;-69
2022/05/10 07:22:19;;;;;;;;;;;;;;;;;;4996824;28;19971;-69
2022/05/10 07:24:45;;;;;;;;;;;;;;;;;;4997430;28;19913;-69
2022/05/10 07:27:11;;;;;;;;;;;;;;;;;;4996605;28;19909;-69
2022/05/10 07:29:37;;;;;;;;;;;;;;;;;;4996700;28;19910;-69
2022/05/10 07:32:03;;;;;;;;;;;;;;;;;;4996769;28;19910;-69
2022/05/10 07:34:29;;;;;;;;;;;;;;;;;;4996180;28;19913;-70
2022/05/10 07:36:55;;;;;;;;;;;;;;;;;;4996798;28;20012;-72
2022/05/10 07:39:22;;;;;;;;;;;;;;;;;;4997179;28;19918;-70
2022/05/10 07:41:51;;;;;;;;;;;;;;;;;;4978844;28;20353;-70
2022/05/10 07:44:17;;;;;;;;;;;;;;;;;;4990360;28;19913;-71
2022/05/10 07:46:43;;;;;;;;;;;;;;;;;;4996769;28;20071;-71
2022/05/10 07:49:09;;;;;;;;;;;;;;;;;;4996494;28;19939;-71
2022/05/10 07:51:35;;;;;;;;;;;;;;;;;;4997064;28;19914;-71
2022/05/10 07:54:01;;;;;;;;;;;;;;;;;;4979047;28;19914;-71
2022/05/10 07:56:28;;;;;;;;;;;;;;;;;;4960078;28;19910;-71
2022/05/10 07:58:54;;;;;;;;;;;;;;;;;;4976832;28;20000;-71
2022/05/10 08:01:20;;;;;;;;;;;;;;;;;;4976676;28;19960;-71
2022/05/10 08:03:46;;;;;;;;;;;;;;;;;;4977231;28;19910;-72
2022/05/10 08:06:12;;;;;;;;;;;;;;;;;;4977531;28;19910;-71
2022/05/10 08:08:38;;;;;;;;;;;;;;;;;;4977041;28;19948;-71
2022/05/10 08:11:04;;;;;;;;;;;;;;;;;;4976190;28;19910;-69
2022/05/10 08:13:31;;;;;;;;;;;;;;;;;;4976580;28;19963;-70
2022/05/10 08:15:57;;;;;;;;;;;;;;;;;;4976471;28;19910;-69
2022/05/10 08:18:23;;;;;;;;;;;;;;;;;;4977577;28;19914;-69
2022/05/10 08:20:49;;;;;;;;;;;;;;;;;;4987926;28;20012;-69
2022/05/10 08:23:15;;;;;;;;;;;;;;;;;;4991818;28;19952;-69
2022/05/10 08:25:41;;;;;;;;;;;;;;;;;;4995375;28;19909;-69
2022/05/10 08:28:13;;;;;;;;;;;;;;;;;;4995526;28;20024;-69
2022/05/10 08:30:39;;;;;;;;;;;;;;;;;;4995748;28;19910;-69
2022/05/10 08:33:05;;;;;;;;;;;;;;;;;;4996488;28;19916;-69
2022/05/10 08:35:31;;;;;;;;;;;;;;;;;;4995604;28;19992;-69
2022/05/10 08:37:57;;;;;;;;;;;;;;;;;;4994755;28;19914;-69
2022/05/10 08:40:23;;;;;;;;;;;;;;;;;;4995667;28;20015;-69
2022/05/10 08:42:49;;;;;;;;;;;;;;;;;;4995556;28;19917;-69
2022/05/10 08:45:15;;;;;;;;;;;;;;;;;;4996122;28;19910;-69
2022/05/10 08:47:41;;;;;;;;;;;;;;;;;;4995525;28;19964;-69
2022/05/10 08:50:07;;;;;;;;;;;;;;;;;;4995340;28;19910;-69
2022/05/10 08:52:33;;;;;;;;;;;;;;;;;;4994791;28;20004;-69
2022/05/10 08:54:59;;;;;;;;;;;;;;;;;;4995965;28;19968;-69
2022/05/10 08:57:25;;;;;;;;;;;;;;;;;;4995089;28;19914;-69
2022/05/10 08:59:51;;;;;;;;;;;;;;;;;;4995048;28;19945;-69
2022/05/10 09:02:17;;;;;;;;;;;;;;;;;;4994740;28;19917;-69
2022/05/10 09:04:43;;;;;;;;;;;;;;;;;;4995178;28;19910;-69
2022/05/10 09:07:09;;;;;;;;;;;;;;;;;;4995662;28;19957;-69
2022/05/10 09:09:35;;;;;;;;;;;;;;;;;;4995974;28;20341;-69
2022/05/10 09:12:01;;;;;;;;;;;;;;;;;;4996037;28;19909;-69
2022/05/10 09:14:27;;;;;;;;;;;;;;;;;;4995710;28;19910;-69
2022/05/10 09:16:53;;;;;;;;;;;;;;;;;;4996303;28;19918;-69
2022/05/10 09:19:19;;;;;;;;;;;;;;;;;;4995539;28;20365;-69
2022/05/10 09:21:47;;;;;;;;;;;;;;;;;;4994954;28;19996;-69
2022/05/10 09:24:13;;;;;;;;;;;;;;;;;;4994891;28;20337;-69
2022/05/10 09:26:39;;;;;;;;;;;;;;;;;;4988460;28;19925;-69
2022/05/10 09:29:05;;;;;;;;;;;;;;;;;;4992238;28;19918;-69
2022/05/10 09:37:00;;;;;;;;;;;;;;;;;;4975645;28;19968;-69
2022/05/10 09:39:26;;;;;;;;;;;;;;;;;;4978180;28;19914;-70
2022/05/10 09:41:52;;;;;;;;;;;;;;;;;;4994132;28;19956;-70
2022/05/10 09:44:18;;;;;;;;;;;;;;;;;;4981170;28;19910;-69
2022/05/10 09:46:44;;;;;;;;;;;;;;;;;;4989339;28;19917;-69
2022/05/10 09:49:10;;;;;;;;;;;;;;;;;;4992249;28;20280;-70
2022/05/10 09:51:36;;;;;;;;;;;;;;;;;;4995014;28;19910;-69
2022/05/10 09:54:02;;;;;;;;;;;;;;;;;;4994749;28;19917;-70
2022/05/10 09:56:28;;;;;;;;;;;;;;;;;;4993623;28;19910;-70
2022/05/10 09:58:54;;;;;;;;;;;;;;;;;;4993587;28;20349;-72
2022/05/10 10:01:20;;;;;;;;;;;;;;;;;;4993810;28;20280;-72
2022/05/10 10:03:46;;;;;;;;;;;;;;;;;;4994303;28;19910;-72
2022/05/10 10:06:12;;;;;;;;;;;;;;;;;;4997416;28;19960;-72
2022/05/10 10:08:38;;;;;;;;;;;;;;;;;;4991115;28;19910;-72
2022/05/10 10:11:04;;;;;;;;;;;;;;;;;;4997611;28;19910;-72
2022/05/10 10:13:32;;;;;;;;;;;;;;;;;;4991146;28;19916;-72
2022/05/10 10:15:58;;;;;;;;;;;;;;;;;;4996266;28;19909;-72
2022/05/10 10:18:24;;;;;;;;;;;;;;;;;;4997180;28;19913;-72
2022/05/10 10:20:50;;;;;;;;;;;;;;;;;;4996793;28;20356;-72
2022/05/10 10:23:16;;;;;;;;;;;;;;;;;;4997289;28;20311;-71
2022/05/10 10:25:42;;;;;;;;;;;;;;;;;;4997462;28;19909;-71
2022/05/10 10:28:08;;;;;;;;;;;;;;;;;;5001831;28;19941;-71
2022/05/10 10:30:34;;;;;;;;;;;;;;;;;;4996995;28;19995;-71
2022/05/10 10:33:00;;;;;;;;;;;;;;;;;;4997113;28;19913;-72
2022/05/10 10:35:26;;;;;;;;;;;;;;;;;;4997713;28;19949;-72
2022/05/10 10:37:52;;;;;;;;;;;;;;;;;;4997463;28;19953;-72
2022/05/10 10:40:18;;;;;;;;;;;;;;;;;;4997224;28;19913;-72
2022/05/10 10:42:49;;;;;;;;;;;;;;;;;;4995894;28;20274;-72
2022/05/10 10:45:15;;;;;;;;;;;;;;;;;;4995959;28;19910;-73
2022/05/10 10:47:41;;;;;;;;;;;;;;;;;;4996517;28;20284;-69
2022/05/10 10:50:07;;;;;;;;;;;;;;;;;;4997152;28;19910;-69
2022/05/10 10:52:33;;;;;;;;;;;;;;;;;;4996104;28;19916;-69
2022/05/10 10:54:59;;;;;;;;;;;;;;;;;;4996253;28;19953;-69
2022/05/10 10:57:25;;;;;;;;;;;;;;;;;;4993983;28;19913;-69
2022/05/10 10:59:51;;;;;;;;;;;;;;;;;;4994091;28;19917;-69
2022/05/10 11:02:17;;;;;;;;;;;;;;;;;;4996938;28;19964;-69
2022/05/10 11:04:43;;;;;;;;;;;;;;;;;;4995665;28;20320;-68
2022/05/10 11:07:09;;;;;;;;;;;;;;;;;;4989234;28;19910;-70
2022/05/10 11:09:35;;;;;;;;;;;;;;;;;;4959685;28;19917;-70
2022/05/10 11:12:01;;;;;;;;;;;;;;;;;;4991477;28;19916;-70
2022/05/10 11:14:27;;;;;;;;;;;;;;;;;;4995168;28;19909;-70
2022/05/10 11:16:53;;;;;;;;;;;;;;;;;;4995452;28;19922;-71
2022/05/10 11:19:19;;;;;;;;;;;;;;;;;;4997159;28;20361;-71
2022/05/10 11:21:44;;;;;;;;;;;;;;;;;;4997770;28;20277;-71
2022/05/10 11:24:10;;;;;;;;;;;;;;;;;;4997117;28;19909;-71
2022/05/10 11:26:36;;;;;;;;;;;;;;;;;;4996907;28;19916;-71
2022/05/10 11:29:03;;;;;;;;;;;;;;;;;;4996922;28;19910;-71
2022/05/10 11:31:29;;;;;;;;;;;;;;;;;;4997495;28;19941;-71
2022/05/10 11:33:55;;;;;;;;;;;;;;;;;;4997121;28;19910;-71
2022/05/10 11:36:22;;;;;;;;;;;;;;;;;;4997012;28;20013;-70
2022/05/10 11:38:48;;;;;;;;;;;;;;;;;;4997020;28;19957;-71
2022/05/10 11:41:14;;;;;;;;;;;;;;;;;;4997458;28;19917;-71
2022/05/10 11:43:40;;;;;;;;;;;;;;;;;;4996701;28;19921;-71
2022/05/10 11:46:06;;;;;;;;;;;;;;;;;;4996603;28;19964;-71
2022/05/10 11:48:32;;;;;;;;;;;;;;;;;;4997418;28;20401;-71
2022/05/10 11:53:42;;;;;;;;;;;;;;;;;;4996269;28;19993;-70
2022/05/10 11:56:08;;;;;;;;;;;;;;;;;;4990652;28;20349;-70
2022/05/10 11:58:34;;;;;;;;;;;;;;;;;;4975548;28;20008;-71
2022/05/10 12:01:00;;;;;;;;;;;;;;;;;;4976781;28;19929;-71
2022/05/10 12:03:26;;;;;;;;;;;;;;;;;;4975652;28;19910;-70
2022/05/10 12:05:52;;;;;;;;;;;;;;;;;;4976647;28;20005;-71
2022/05/10 12:08:19;;;;;;;;;;;;;;;;;;4976517;28;20353;-71
2022/05/10 12:10:45;;;;;;;;;;;;;;;;;;4975856;28;19984;-71
2022/05/10 12:13:11;;;;;;;;;;;;;;;;;;4975748;28;19917;-71
2022/05/10 12:21:19;;;;;;;;;;;;;;;;;;4978208;28;19921;-69
2022/05/10 12:23:47;;;;;;;;;;;;;;;;;;4975742;28;20000;-70
2022/05/10 12:26:12;;;;;;;;;;;;;;;;;;4975707;28;19914;-70
2022/05/10 12:28:39;;;;;;;;;;;;;;;;;;4974827;28;20052;-70
2022/05/10 12:31:05;;;;;;;;;;;;;;;;;;4976187;28;19910;-70
2022/05/10 12:33:32;;;;;;;;;;;;;;;;;;4982449;28;19910;-70
2022/05/10 12:35:58;;;;;;;;;;;;;;;;;;4984824;28;19910;-70
2022/05/10 12:38:24;;;;;;;;;;;;;;;;;;4974824;28;20388;-69
2022/05/10 12:40:51;;;;;;;;;;;;;;;;;;4988633;28;19952;-69
2022/05/10 12:43:17;;;;;;;;;;;;;;;;;;4994823;28;19918;-69
2022/05/10 12:45:44;;;;;;;;;;;;;;;;;;4995877;28;19909;-70
2022/05/10 12:48:10;;;;;;;;;;;;;;;;;;4995851;28;19913;-70
2022/05/10 12:50:37;;;;;;;;;;;;;;;;;;4994903;28;20009;-69
2022/05/10 12:53:03;;;;;;;;;;;;;;;;;;4994856;28;20384;-69
2022/05/10 12:55:29;;;;;;;;;;;;;;;;;;4995226;28;19909;-69
2022/05/10 12:57:55;;;;;;;;;;;;;;;;;;4994775;28;19914;-70
2022/05/10 13:00:21;;;;;;;;;;;;;;;;;;4993038;28;19918;-70
2022/05/10 13:02:49;;;;;;;;;;;;;;;;;;4992220;28;19916;-70
2022/05/10 13:05:15;;;;;;;;;;;;;;;;;;4994139;28;19914;-70
2022/05/10 13:07:42;;;;;;;;;;;;;;;;;;4993782;28;19963;-70
2022/05/10 13:10:08;;;;;;;;;;;;;;;;;;4994677;28;19936;-70
2022/05/10 13:12:37;;;;;;;;;;;;;;;;;;4995560;28;19953;-70
2022/05/10 13:15:03;;;;;;;;;;;;;;;;;;4994797;28;19956;-71
2022/05/10 13:17:29;;;;;;;;;;;;;;;;;;4995041;28;19961;-70
2022/05/10 13:19:55;;;;;;;;;;;;;;;;;;4995368;28;19914;-70
2022/05/10 13:22:21;;;;;;;;;;;;;;;;;;4994949;28;19920;-71
2022/05/10 13:24:47;;;;;;;;;;;;;;;;;;4995662;28;19910;-71
2022/05/10 13:27:13;;;;;;;;;;;;;;;;;;4994949;28;19910;-71
2022/05/10 13:29:41;;;;;;;;;;;;;;;;;;4995467;28;19914;-71
2022/05/10 13:32:07;;;;;;;;;;;;;;;;;;4995088;28;19910;-70
2022/05/10 13:34:33;;;;;;;;;;;;;;;;;;4995379;28;19916;-70
2022/05/10 13:36:59;;;;;;;;;;;;;;;;;;4995563;28;20253;-70
2022/05/10 13:39:25;;;;;;;;;;;;;;;;;;4997337;28;19913;-70
2022/05/10 13:41:51;;;;;;;;;;;;;;;;;;4998255;28;20436;-70
2022/05/10 13:44:18;;;;;;;;;;;;;;;;;;4999246;28;19960;-70
2022/05/10 13:46:44;;;;;;;;;;;;;;;;;;4999030;28;19910;-70
2022/05/10 13:49:10;;;;;;;;;;;;;;;;;;4999234;28;19921;-70
2022/05/10 13:51:36;;;;;;;;;;;;;;;;;;4999668;28;19917;-70
2022/05/10 13:54:02;;;;;;;;;;;;;;;;;;4998750;28;19909;-70
2022/05/10 13:56:29;;;;;;;;;;;;;;;;;;4998948;28;20376;-70
2022/05/10 13:58:55;;;;;;;;;;;;;;;;;;4998605;28;20353;-70
2022/05/10 14:01:22;;;;;;;;;;;;;;;;;;4998241;28;19984;-70
2022/05/10 14:03:48;;;;;;;;;;;;;;;;;;4998417;28;19909;-70
2022/05/10 14:06:14;;;;;;;;;;;;;;;;;;4998786;28;19916;-70
2022/05/10 14:08:40;;;;;;;;;;;;;;;;;;4998608;28;20001;-70
2022/05/10 14:11:08;;;;;;;;;;;;;;;;;;4998512;28;20345;-70
2022/05/10 14:13:34;;;;;;;;;;;;;;;;;;4998251;28;19941;-70
2022/05/10 14:16:00;;;;;;;;;;;;;;;;;;4997987;28;19914;-70
2022/05/10 14:18:27;;;;;;;;;;;;;;;;;;4997391;28;19914;-71
2022/05/10 14:20:53;;;;;;;;;;;;;;;;;;4997738;28;19956;-71
2022/05/10 14:23:19;;;;;;;;;;;;;;;;;;4998736;28;19914;-71
2022/05/10 14:25:45;;;;;;;;;;;;;;;;;;4998035;28;19917;-71
2022/05/10 14:28:16;;;;;;;;;;;;;;;;;;4997346;28;19910;-71
2022/05/10 14:30:44;;;;;;;;;;;;;;;;;;4997112;28;19992;-71
2022/05/10 14:33:11;;;;;;;;;;;;;;;;;;4981385;28;19914;-71
2022/05/10 14:35:36;;;;;;;;;;;;;;;;;;4998213;28;19909;-71
2022/05/10 14:38:02;;;;;;;;;;;;;;;;;;4997893;28;20241;-70
2022/05/10 14:40:28;;;;;;;;;;;;;;;;;;4997839;28;19914;-70
2022/05/10 14:42:54;;;;;;;;;;;;;;;;;;4996989;28;19917;-71
2022/05/10 14:45:20;;;;;;;;;;;;;;;;;;4997939;28;20305;-71
2022/05/10 14:47:46;;;;;;;;;;;;;;;;;;4996556;28;19910;-70
2022/05/10 14:50:12;;;;;;;;;;;;;;;;;;4996969;28;19914;-70
2022/05/10 14:52:38;;;;;;;;;;;;;;;;;;4997063;28;19910;-70
2022/05/10 14:55:04;;;;;;;;;;;;;;;;;;4997752;28;19941;-70
2022/05/10 14:57:30;;;;;;;;;;;;;;;;;;4996160;28;19918;-69
2022/05/10 14:59:58;;;;;;;;;;;;;;;;;;4997045;28;19913;-69
2022/05/10 15:02:24;;;;;;;;;;;;;;;;;;4997083;28;19910;-68
2022/05/10 15:04:50;;;;;;;;;;;;;;;;;;4996834;28;19917;-68
2022/05/10 15:07:16;;;;;;;;;;;;;;;;;;4996667;28;20332;-69
2022/05/10 15:09:43;;;;;;;;;;;;;;;;;;4995855;28;20339;-68
2022/05/10 15:14:53;;;;;;;;;;;;;;;;;;4989832;28;19985;-68
2022/05/10 15:17:19;;;;;;;;;;;;;;;;;;4995181;28;20352;-68
2022/05/10 15:19:45;;;;;;;;;;;;;;;;;;4996833;28;19913;-68
2022/05/10 15:22:11;;;;;;;;;;;;;;;;;;4996988;28;19916;-68
2022/05/10 15:24:37;;;;;;;;;;;;;;;;;;4987694;28;20357;-68
2022/05/10 15:27:03;;;;;;;;;;;;;;;;;;4995855;28;20284;-68
2022/05/10 15:29:30;;;;;;;;;;;;;;;;;;4996576;28;19910;-68
2022/05/10 15:31:56;;;;;;;;;;;;;;;;;;4995720;28;20141;-68
2022/05/10 15:37:07;;;;;;;;;;;;;;;;;;4995885;28;19921;-68
2022/05/10 15:39:33;;;;;;;;;;;;;;;;;;4996548;28;19914;-68
2022/05/10 15:41:59;;;;;;;;;;;;;;;;;;4995181;28;19926;-69
2022/05/10 15:44:25;;;;;;;;;;;;;;;;;;4995620;28;19909;-68
2022/05/10 15:46:51;;;;;;;;;;;;;;;;;;4995993;28;19909;-68
2022/05/10 15:49:17;;;;;;;;;;;;;;;;;;4997282;28;19916;-68
2022/05/10 15:51:44;;;;;;;;;;;;;;;;;;4995285;28;19917;-68
2022/05/10 15:54:10;;;;;;;;;;;;;;;;;;4995725;28;19917;-68
2022/05/10 15:56:36;;;;;;;;;;;;;;;;;;4994189;28;19910;-68
2022/05/10 15:59:02;;;;;;;;;;;;;;;;;;4996650;28;19920;-68
2022/05/10 16:01:28;;;;;;;;;;;;;;;;;;4995758;28;19982;-68
2022/05/10 16:03:54;;;;;;;;;;;;;;;;;;4996585;28;19918;-68
2022/05/10 16:06:20;;;;;;;;;;;;;;;;;;4996384;28;19914;-68
2022/05/10 16:08:46;;;;;;;;;;;;;;;;;;4995364;28;20324;-68
2022/05/10 16:11:12;;;;;;;;;;;;;;;;;;4994269;28;19910;-69
2022/05/10 16:13:38;;;;;;;;;;;;;;;;;;4995228;28;20352;-70
2022/05/10 16:16:04;;;;;;;;;;;;;;;;;;4989731;28;20361;-68
2022/05/10 16:18:30;;;;;;;;;;;;;;;;;;4994449;28;19922;-69
2022/05/10 16:20:56;;;;;;;;;;;;;;;;;;4992587;28;20445;-69
2022/05/10 16:23:22;;;;;;;;;;;;;;;;;;4994082;28;19909;-69
2022/05/10 16:25:48;;;;;;;;;;;;;;;;;;4989030;28;19964;-69
2022/05/10 16:30:59;;;;;;;;;;;;;;;;;;4989615;28;19916;-68
2022/05/10 16:33:28;;;;;;;;;;;;;;;;;;4992070;28;20279;-69
2022/05/10 16:35:54;;;;;;;;;;;;;;;;;;4991500;28;19916;-69
2022/05/10 16:38:20;;;;;;;;;;;;;;;;;;4994743;28;19917;-69
2022/05/10 16:40:47;;;;;;;;;;;;;;;;;;4995157;28;19918;-69
2022/05/10 16:43:13;;;;;;;;;;;;;;;;;;4994234;28;19917;-68
2022/05/10 16:45:39;;;;;;;;;;;;;;;;;;4995055;28;20005;-69
2022/05/10 16:48:05;;;;;;;;;;;;;;;;;;4993865;28;19917;-69
2022/05/10 16:50:31;;;;;;;;;;;;;;;;;;4990658;28;19910;-68
2022/05/10 16:52:57;;;;;;;;;;;;;;;;;;4995261;28;19910;-68
2022/05/10 16:55:23;;;;;;;;;;;;;;;;;;4995446;28;20093;-69
2022/05/10 16:57:49;;;;;;;;;;;;;;;;;;4995523;28;19914;-68
2022/05/10 17:00:15;;;;;;;;;;;;;;;;;;4973477;28;19922;-69
2022/05/10 17:02:41;;;;;;;;;;;;;;;;;;4989271;28;19909;-69